Time;durP1;ratioP1;P1;durP2;ratioP2;P2;SDS_P1;SDS_P2;PMS_P1;PMS_P2;Temp;Humidity;BMP_temperature;BMP_pressure;BME280_temperature;BME280_humidity;BME280_pressure;Samples;Min_cycle;Max_cycle;Signal;HPM_P1;HPM_P2
2022/08/04 00:00:05;;;;;;;;;;;23.20;64.00;;;;;;4896754;29;20103;-78
2022/08/04 00:02:52;;;;;;;5.25;2.50;;;23.10;64.80;;;;;;4904604;29;19919;-78
2022/08/04 00:05:32;;;;;;;9.45;2.80;;;23.00;66.60;;;;;;4966082;28;20040;-78
2022/08/04 00:07:58;;;;;;;12.88;2.95;;;23.10;64.00;;;;;;5003068;28;20035;-78
2022/08/04 00:10:23;;;;;;;2.90;1.23;;;23.20;63.20;;;;;;5007660;28;20317;-79
2022/08/04 00:12:50;;;;;;;8.40;2.53;;;23.30;62.50;;;;;;4994849;28;20048;-78
2022/08/04 00:15:16;;;;;;;4.93;2.30;;;23.20;62.00;;;;;;4984945;28;20037;-78
2022/08/04 00:17:48;;;;;;;5.18;1.80;;;23.10;61.90;;;;;;4960787;28;20034;-78
2022/08/04 00:20:16;;;;;;;7.38;1.92;;;22.90;63.70;;;;;;4978614;28;20049;-79
2022/08/04 00:22:42;;;;;;;12.88;2.28;;;22.80;64.50;;;;;;5007893;28;20054;-79
2022/08/04 00:25:07;;;;;;;6.57;2.35;;;22.80;64.00;;;;;;4998952;28;20057;-78
2022/08/04 00:27:33;;;;;;;5.95;2.72;;;22.80;63.60;;;;;;4958807;28;20520;-78
2022/08/04 00:29:59;;;;;;;14.73;2.80;;;22.70;64.10;;;;;;4992687;28;20451;-78
2022/08/04 00:32:27;;;;;;;7.63;2.58;;;22.70;63.50;;;;;;4991273;28;20232;-79
2022/08/04 00:34:56;;;;;;;5.68;2.20;;;22.60;64.30;;;;;;4998821;28;20092;-78
2022/08/04 00:37:22;;;;;;;6.50;2.00;;;22.50;66.20;;;;;;4968481;28;20119;-78
2022/08/04 00:39:48;;;;;;;12.65;2.33;;;22.40;68.40;;;;;;4978418;28;20477;-79
2022/08/04 00:42:24;;;;;;;6.22;2.25;;;22.40;67.70;;;;;;4997284;28;20031;-78
2022/08/04 00:44:58;;;;;;;6.63;2.50;;;22.40;66.00;;;;;;5019854;28;20503;-79
2022/08/04 00:47:49;;;;;;;5.78;2.28;;;22.40;65.30;;;;;;5017450;28;20485;-78
2022/08/04 00:50:26;;;;;;;7.90;2.20;;;22.50;64.70;;;;;;4989379;28;20417;-78
2022/08/04 00:52:57;;;;;;;8.05;2.00;;;22.50;64.00;;;;;;5009797;28;20485;-78
2022/08/04 00:55:44;;;;;;;5.22;1.98;;;22.50;64.00;;;;;;4989502;28;20109;-78
2022/08/04 00:58:42;;;;;;;8.15;2.10;;;22.50;63.80;;;;;;4991550;28;20053;-79
2022/08/04 01:01:20;;;;;;;6.32;2.08;;;22.40;63.60;;;;;;4974969;28;20077;-77
2022/08/04 01:03:49;;;;;;;10.30;3.00;;;22.20;65.00;;;;;;4969750;28;20088;-78
2022/08/04 01:06:33;;;;;;;9.60;2.67;;;22.10;64.80;;;;;;4994719;28;20052;-78
2022/08/04 01:09:10;;;;;;;4.75;2.30;;;22.00;66.40;;;;;;4973356;28;20037;-79
2022/08/04 01:12:02;;;;;;;4.97;1.92;;;22.00;64.80;;;;;;5018646;28;20109;-78
2022/08/04 01:14:55;;;;;;;5.30;1.60;;;22.10;64.40;;;;;;4968986;28;20539;-78
2022/08/04 01:17:39;;;;;;;7.72;1.83;;;22.10;64.50;;;;;;4991972;28;20029;-78
2022/08/04 01:20:08;;;;;;;3.33;2.05;;;22.10;64.50;;;;;;4991694;28;20034;-78
2022/08/04 01:23:10;;;;;;;4.80;2.00;;;22.10;64.80;;;;;;4977447;28;20763;-78
2022/08/04 01:25:45;;;;;;;6.80;2.00;;;22.00;64.40;;;;;;4997611;28;20490;-78
2022/08/04 01:28:47;;;;;;;7.85;2.75;;;21.90;64.60;;;;;;5012621;28;20110;-78
2022/08/04 01:31:30;;;;;;;8.57;2.20;;;21.90;64.60;;;;;;5002000;28;20029;-79
2022/08/04 01:33:57;;;;;;;6.18;2.20;;;21.90;64.60;;;;;;4978201;28;20458;-78
2022/08/04 01:36:22;;;;;;;7.53;2.08;;;21.90;64.90;;;;;;4995764;28;20026;-78
2022/08/04 01:38:48;;;;;;;5.10;1.70;;;21.90;64.60;;;;;;4985003;28;20026;-78
2022/08/04 01:41:14;;;;;;;8.45;2.00;;;21.80;64.90;;;;;;5006103;28;20027;-78
2022/08/04 01:43:40;;;;;;;5.43;2.55;;;21.70;65.10;;;;;;4977871;28;20514;-78
2022/08/04 01:46:06;;;;;;;11.05;2.80;;;21.70;64.90;;;;;;4999337;28;20031;-78
2022/08/04 01:48:32;;;;;;;7.68;2.00;;;21.60;65.00;;;;;;4983504;28;20030;-78
2022/08/04 01:51:01;;;;;;;5.60;2.53;;;21.50;65.20;;;;;;4967343;28;20033;-78
2022/08/04 01:53:33;;;;;;;5.00;1.80;;;21.40;65.40;;;;;;4963688;28;20487;-79
2022/08/04 01:56:00;;;;;;;8.02;2.20;;;21.40;65.50;;;;;;4968262;28;20879;-78
2022/08/04 01:58:25;;;;;;;5.38;2.70;;;21.30;65.60;;;;;;4987383;28;20038;-78
2022/08/04 02:01:05;;;;;;;5.55;2.65;;;21.20;66.50;;;;;;5015293;28;20030;-78
2022/08/04 02:03:31;;;;;;;6.18;2.80;;;21.20;66.30;;;;;;4992799;28;20391;-78
2022/08/04 02:06:12;;;;;;;4.15;2.10;;;21.30;65.80;;;;;;5004794;28;20400;-78
2022/08/04 02:08:45;;;;;;;5.90;2.38;;;21.20;65.70;;;;;;4990804;28;20056;-78
2022/08/04 02:11:16;;;;;;;4.82;2.38;;;21.20;66.50;;;;;;5026562;28;20041;-78
2022/08/04 02:14:11;;;;;;;8.93;2.83;;;20.90;67.80;;;;;;4992857;28;20148;-78
2022/08/04 02:16:46;;;;;;;8.80;2.72;;;20.90;73.70;;;;;;4974475;28;20030;-78
2022/08/04 02:19:30;;;;;;;4.28;2.15;;;20.80;70.10;;;;;;4988580;28;20030;-78
2022/08/04 02:22:17;;;;;;;3.05;1.90;;;20.90;68.80;;;;;;5005349;28;20030;-78
2022/08/04 02:24:48;;;;;;;9.52;2.25;;;21.00;68.00;;;;;;5003684;28;20396;-79
2022/08/04 02:27:13;;;;;;;5.65;2.50;;;20.90;67.10;;;;;;5009078;28;20119;-79
2022/08/04 02:29:47;;;;;;;5.20;2.30;;;20.80;69.30;;;;;;5004807;28;20112;-79
2022/08/04 02:32:24;;;;;;;8.95;2.50;;;20.60;72.60;;;;;;4998222;28;20041;-79
2022/08/04 02:35:14;;;;;;;7.35;2.25;;;20.60;70.90;;;;;;4983731;28;20124;-79
2022/08/04 02:37:46;;;;;;;9.07;2.53;;;20.60;70.00;;;;;;4998122;28;20091;-78
2022/08/04 02:40:11;;;;;;;7.93;2.90;;;20.50;78.00;;;;;;5009816;28;20416;-79
2022/08/04 02:42:37;;;;;;;6.43;3.13;;;20.40;72.20;;;;;;5013392;28;20030;-79
2022/08/04 02:45:03;;;;;;;8.43;2.60;;;20.40;72.80;;;;;;5017531;28;20105;-79
2022/08/04 02:47:29;;;;;;;5.70;2.40;;;20.40;73.20;;;;;;4989987;28;20036;-79
2022/08/04 02:49:56;;;;;;;7.88;2.47;;;20.40;76.80;;;;;;4998089;28;20117;-79
2022/08/04 02:52:21;;;;;;;12.43;2.78;;;20.40;78.00;;;;;;4975672;28;20500;-79
2022/08/04 02:54:50;;;;;;;8.05;2.97;;;20.40;84.50;;;;;;4983183;28;20228;-79
2022/08/04 02:57:16;;;;;;;9.93;2.70;;;20.20;78.00;;;;;;4971293;28;20029;-79
2022/08/04 03:00:06;;;;;;;7.60;2.45;;;20.20;81.40;;;;;;5003802;28;20034;-79
2022/08/04 03:02:45;;;;;;;10.07;2.67;;;20.10;80.80;;;;;;5008067;28;20058;-79
2022/08/04 03:05:18;;;;;;;8.60;2.40;;;20.20;89.20;;;;;;4983012;28;20034;-79
2022/08/04 03:08:17;;;;;;;4.88;2.65;;;20.10;84.60;;;;;;5006647;28;20376;-79
2022/08/04 03:10:52;;;;;;;6.35;2.65;;;20.10;84.30;;;;;;4991704;28;20030;-79
2022/08/04 03:13:20;;;;;;;9.45;2.08;;;20.10;92.60;;;;;;5012888;28;20061;-79
2022/08/04 03:16:01;;;;;;;6.20;3.03;;;20.10;93.30;;;;;;4995561;28;20036;-79
2022/08/04 03:18:41;;;;;;;14.70;3.13;;;20.10;91.90;;;;;;5029375;28;20354;-80
2022/08/04 03:21:34;;;;;;;5.10;2.40;;;20.00;92.70;;;;;;4998893;28;20442;-79
2022/08/04 03:24:17;;;;;;;8.80;2.25;;;19.90;94.40;;;;;;5027075;28;20540;-79
2022/08/04 03:27:01;;;;;;;4.78;2.33;;;20.00;94.90;;;;;;4993818;28;20433;-79
2022/08/04 03:29:35;;;;;;;6.55;2.70;;;20.00;95.50;;;;;;5005239;28;20030;-79
2022/08/04 03:32:18;;;;;;;7.25;2.55;;;20.00;91.50;;;;;;5014514;28;20040;-78
2022/08/04 03:35:07;;;;;;;7.15;2.45;;;20.00;91.50;;;;;;5025657;28;20026;-79
2022/08/04 03:38:00;;;;;;;6.55;2.60;;;20.00;90.60;;;;;;4992750;28;20053;-78
2022/08/04 03:40:45;;;;;;;8.65;2.72;;;19.90;92.20;;;;;;5009044;28;20038;-78
2022/08/04 03:43:25;;;;;;;8.60;2.67;;;19.90;89.50;;;;;;5011102;28;20049;-79
2022/08/04 03:46:03;;;;;;;15.88;3.00;;;19.80;93.90;;;;;;5030161;28;20116;-79
2022/08/04 03:48:46;;;;;;;9.68;2.90;;;19.80;95.80;;;;;;5006359;28;20030;-79
2022/08/04 03:55:17;;;;;;;6.43;3.00;;;19.70;97.70;;;;;;4939382;28;20031;-79
2022/08/04 03:58:13;;;;;;;9.05;3.00;;;19.70;94.80;;;;;;4932089;28;20063;-78
2022/08/04 04:00:50;;;;;;;5.37;1.63;;;19.80;93.20;;;;;;5002337;28;20049;-79
2022/08/04 04:03:19;;;;;;;6.88;2.72;;;20.00;91.10;;;;;;5012124;28;20454;-79
2022/08/04 04:06:22;;;;;;;5.90;2.67;;;20.00;90.40;;;;;;5008161;28;20033;-79
2022/08/04 04:08:56;;;;;;;9.75;2.85;;;19.80;92.70;;;;;;4994401;28;20037;-78
2022/08/04 04:11:30;;;;;;;9.27;2.90;;;19.80;88.80;;;;;;5020212;28;20506;-79
2022/08/04 04:14:08;;;;;;;9.25;2.30;;;19.70;89.20;;;;;;4999124;28;20485;-79
2022/08/04 04:16:52;;;;;;;4.70;1.80;;;19.80;92.10;;;;;;4989143;28;20510;-79
2022/08/04 04:19:27;;;;;;;5.15;1.80;;;19.70;91.10;;;;;;4996264;28;20113;-79
2022/08/04 04:21:55;;;;;;;8.77;2.40;;;19.70;90.00;;;;;;5008231;28;20486;-79
2022/08/04 04:24:45;;;;;;;5.50;2.42;;;19.70;90.00;;;;;;5001829;28;20446;-79
2022/08/04 04:27:18;;;;;;;9.98;2.45;;;19.70;89.20;;;;;;5010631;28;20031;-79
2022/08/04 04:30:08;;;;;;;7.78;2.72;;;19.70;87.80;;;;;;4964937;28;20037;-78
2022/08/04 04:32:57;;;;;;;7.90;2.13;;;19.70;91.80;;;;;;5005410;28;20033;-79
2022/08/04 04:35:33;;;;;;;5.03;2.92;;;19.70;88.00;;;;;;5021629;28;20046;-78
2022/08/04 04:38:16;;;;;;;;;;;19.70;89.10;;;;;;5001163;28;20068;-79
2022/08/04 04:40:48;;;;;;;3.78;1.63;;;19.70;92.70;;;;;;4979260;28;20004;-79
2022/08/04 04:43:37;;;;;;;8.00;3.22;;;19.80;89.10;;;;;;5019754;28;20488;-78
2022/08/04 04:46:12;;;;;;;3.03;1.80;;;19.80;89.60;;;;;;5001881;28;20822;-78
2022/08/04 04:48:46;;;;;;;5.00;2.10;;;19.90;89.30;;;;;;4978289;28;20040;-78
2022/08/04 04:51:26;;;;;;;3.72;1.95;;;20.10;90.90;;;;;;4991726;28;20034;-78
2022/08/04 04:54:07;;;;;;;6.93;2.42;;;20.10;90.70;;;;;;5008286;28;20469;-78
2022/08/04 04:56:42;;;;;;;3.03;1.83;;;20.00;90.00;;;;;;4990726;28;20034;-78
2022/08/04 04:59:11;;;;;;;4.25;2.10;;;20.10;90.00;;;;;;4998810;28;20039;-79
2022/08/04 05:01:49;;;;;;;6.22;1.80;;;20.10;89.70;;;;;;4997029;28;20036;-77
2022/08/04 05:05:06;;;;;;;4.05;1.95;;;20.20;89.30;;;;;;5005196;28;20034;-77
2022/08/04 05:08:03;;;;;;;4.70;2.33;;;20.40;90.40;;;;;;4989716;28;20029;-78
2022/08/04 05:10:59;;;;;;;4.18;2.28;;;20.50;90.30;;;;;;5012056;28;20152;-78
2022/08/04 05:13:34;;;;;;;11.57;2.75;;;20.60;90.90;;;;;;5001981;28;20025;-78
2022/08/04 05:16:20;;;;;;;8.60;2.22;;;20.70;90.10;;;;;;5002223;28;20121;-78
2022/08/04 05:18:48;;;;;;;7.55;2.67;;;20.90;88.40;;;;;;5005102;28;20073;-78
2022/08/04 05:21:20;;;;;;;5.45;2.10;;;21.00;87.50;;;;;;4963792;28;20038;-77
2022/08/04 05:23:48;;;;;;;4.88;2.75;;;21.10;87.20;;;;;;4999885;28;20040;-79
2022/08/04 05:26:15;;;;;;;7.50;2.92;;;21.10;86.50;;;;;;4980777;28;20049;-78
2022/08/04 05:28:51;;;;;;;7.55;2.70;;;21.20;85.50;;;;;;4964502;28;20526;-78
2022/08/04 05:31:22;;;;;;;6.43;2.15;;;21.40;85.00;;;;;;4995294;28;20044;-78
2022/08/04 05:33:56;;;;;;;4.78;2.50;;;21.50;86.00;;;;;;4979051;28;20062;-79
2022/08/04 05:36:25;;;;;;;7.35;2.30;;;21.70;85.50;;;;;;4982578;28;20108;-78
2022/08/04 05:38:54;;;;;;;6.68;2.28;;;21.90;85.40;;;;;;4964348;28;20030;-79
2022/08/04 05:41:20;;;;;;;4.63;2.53;;;22.10;85.30;;;;;;4980029;28;20018;-78
2022/08/04 05:43:45;;;;;;;3.97;2.28;;;22.40;85.00;;;;;;4998858;28;20053;-78
2022/08/04 05:46:11;;;;;;;13.23;2.83;;;22.50;84.50;;;;;;4991622;28;20030;-78
2022/08/04 05:48:37;;;;;;;9.55;2.50;;;22.70;85.50;;;;;;4979038;28;20081;-78
2022/08/04 05:51:03;;;;;;;4.05;2.05;;;23.00;86.60;;;;;;4987472;28;20045;-78
2022/08/04 05:53:29;;;;;;;3.80;1.77;;;23.20;83.10;;;;;;4990696;28;20524;-78
2022/08/04 05:55:55;;;;;;;8.45;2.70;;;23.30;80.60;;;;;;5004227;28;20026;-78
2022/08/04 05:58:20;;;;;;;6.30;2.33;;;23.40;82.40;;;;;;5027385;28;20038;-78
2022/08/04 06:00:46;;;;;;;7.20;2.40;;;23.70;86.80;;;;;;5006639;28;20083;-78
2022/08/04 06:03:11;;;;;;;7.50;2.42;;;23.90;81.70;;;;;;4976081;28;20038;-78
2022/08/04 06:05:37;;;;;;;5.60;2.50;;;24.20;85.70;;;;;;4990840;28;20504;-78
2022/08/04 06:08:04;;;;;;;10.32;3.83;;;24.40;79.50;;;;;;4992579;28;20099;-78
2022/08/04 06:10:30;;;;;;;3.78;2.25;;;24.60;84.90;;;;;;4997391;28;20033;-78
2022/08/04 06:12:59;;;;;;;7.40;2.30;;;24.80;82.00;;;;;;5004056;28;20055;-78
2022/08/04 06:15:25;;;;;;;6.40;2.28;;;24.90;82.30;;;;;;4989673;28;20042;-78
2022/08/04 06:17:56;;;;;;;2.40;1.45;;;25.20;81.70;;;;;;5005375;28;20132;-79
2022/08/04 06:20:25;;;;;;;3.97;1.63;;;25.20;77.30;;;;;;4983800;28;20029;-79
2022/08/04 06:22:56;;;;;;;4.35;2.15;;;25.30;78.30;;;;;;4992657;28;20409;-79
2022/08/04 06:25:26;;;;;;;7.40;1.98;;;25.50;84.80;;;;;;4961685;28;20435;-78
2022/08/04 06:27:52;;;;;;;9.30;3.10;;;25.90;85.10;;;;;;4991135;28;20111;-78
2022/08/04 06:30:18;;;;;;;5.47;2.85;;;26.20;85.90;;;;;;5007210;28;20046;-79
2022/08/04 06:32:54;;;;;;;9.30;2.65;;;26.40;85.80;;;;;;4996147;28;20077;-78
2022/08/04 06:35:20;;;;;;;4.13;2.13;;;26.70;85.80;;;;;;4971667;28;20042;-79
2022/08/04 06:37:46;;;;;;;7.93;2.42;;;27.00;85.60;;;;;;4980610;28;20370;-79
2022/08/04 06:40:13;;;;;;;9.55;2.95;;;27.20;84.60;;;;;;4961536;28;20057;-79
2022/08/04 06:42:39;;;;;;;6.55;2.28;;;27.40;84.00;;;;;;4984027;28;20481;-79
2022/08/04 06:45:05;;;;;;;3.33;1.90;;;27.70;84.60;;;;;;4987851;28;20038;-79
2022/08/04 06:47:31;;;;;;;6.28;2.53;;;28.00;83.70;;;;;;4974552;28;20038;-79
2022/08/04 06:49:56;;;;;;;8.70;2.40;;;28.20;83.20;;;;;;4986048;28;20195;-79
2022/08/04 06:52:22;;;;;;;8.52;2.15;;;28.50;82.40;;;;;;5001580;28;20046;-79
2022/08/04 06:54:49;;;;;;;8.57;2.63;;;28.60;80.50;;;;;;5010910;28;20041;-79
2022/08/04 06:57:17;;;;;;;9.35;2.17;;;28.70;78.50;;;;;;4990568;28;20140;-78
2022/08/04 06:59:43;;;;;;;3.58;1.90;;;28.90;77.10;;;;;;4995899;28;20037;-79
2022/08/04 07:02:13;;;;;;;5.40;2.10;;;28.80;75.80;;;;;;4986278;28;20041;-79
2022/08/04 07:04:38;;;;;;;2.38;2.13;;;29.40;79.20;;;;;;5005512;28;20037;-79
2022/08/04 07:07:04;;;;;;;6.15;2.25;;;29.60;77.60;;;;;;4964254;28;20030;-79
2022/08/04 07:09:30;;;;;;;4.18;1.80;;;30.10;72.40;;;;;;5005535;28;20034;-78
2022/08/04 07:11:55;;;;;;;2.95;1.73;;;29.90;69.60;;;;;;5012792;28;20067;-78
2022/08/04 07:14:21;;;;;;;4.15;1.92;;;29.90;68.50;;;;;;4965013;28;20462;-78
2022/08/04 07:16:47;;;;;;;7.50;2.28;;;30.30;74.60;;;;;;5005997;28;20405;-78
2022/08/04 07:19:12;;;;;;;2.70;1.90;;;30.50;74.30;;;;;;4996406;28;20027;-78
2022/08/04 07:21:38;;;;;;;4.60;2.10;;;30.70;67.00;;;;;;5002361;28;20033;-78
2022/08/04 07:24:04;;;;;;;2.75;1.67;;;31.00;73.40;;;;;;5026508;28;20065;-78
2022/08/04 07:26:29;;;;;;;5.50;2.00;;;30.90;66.50;;;;;;4980140;28;20026;-78
2022/08/04 07:28:55;;;;;;;1.77;1.52;;;31.40;71.00;;;;;;5009984;28;20030;-78
2022/08/04 07:31:22;;;;;;;4.30;1.42;;;31.30;65.10;;;;;;4979184;28;20490;-78
2022/08/04 07:33:47;;;;;;;2.38;1.70;;;31.30;64.60;;;;;;4995686;28;20095;-79
2022/08/04 07:36:13;;;;;;;2.72;1.95;;;31.30;66.90;;;;;;4973954;28;20038;-79
2022/08/04 07:38:40;;;;;;;5.35;1.88;;;31.60;64.70;;;;;;4994903;28;20461;-78
2022/08/04 07:41:05;;;;;;;3.50;1.80;;;31.70;66.00;;;;;;5001509;28;20026;-79
2022/08/04 07:43:31;;;;;;;5.13;2.03;;;31.80;63.50;;;;;;5004330;28;20132;-79
2022/08/04 07:45:56;;;;;;;3.40;1.90;;;31.80;62.40;;;;;;4998417;28;20029;-79
2022/08/04 07:48:23;;;;;;;3.35;2.33;;;31.90;64.10;;;;;;4992748;28;20042;-79
2022/08/04 07:50:49;;;;;;;4.63;2.08;;;31.90;61.30;;;;;;4979145;28;20496;-79
2022/08/04 07:53:15;;;;;;;7.00;2.10;;;32.00;63.10;;;;;;4994799;28;20088;-79
2022/08/04 07:55:41;;;;;;;4.85;1.90;;;32.20;61.10;;;;;;4998143;28;20339;-79
2022/08/04 07:58:07;;;;;;;3.90;1.70;;;32.20;61.10;;;;;;4999199;28;20065;-79
2022/08/04 08:00:32;;;;;;;3.25;1.77;;;32.20;60.00;;;;;;4989129;28;20084;-79
2022/08/04 08:03:01;;;;;;;4.13;1.60;;;32.20;58.90;;;;;;4964242;28;20412;-79
2022/08/04 08:05:27;;;;;;;6.55;2.10;;;32.40;58.40;;;;;;4986893;28;20081;-79
2022/08/04 08:07:53;;;;;;;1.90;1.70;;;32.50;57.40;;;;;;4967378;28;20061;-79
2022/08/04 08:10:25;;;;;;;5.72;1.92;;;32.60;57.60;;;;;;4985965;28;20445;-80
2022/08/04 08:12:51;;;;;;;3.70;2.05;;;32.80;59.10;;;;;;4974030;28;20052;-79
2022/08/04 08:15:18;;;;;;;2.65;1.83;;;33.00;56.70;;;;;;5012104;28;20505;-79
2022/08/04 08:17:43;;;;;;;3.88;1.95;;;32.90;57.20;;;;;;4998098;28;20489;-80
2022/08/04 08:20:09;;;;;;;3.75;1.90;;;33.20;56.60;;;;;;4976072;28;20096;-80
2022/08/04 08:22:38;;;;;;;2.17;1.70;;;33.20;56.20;;;;;;4977426;28;20970;-80
2022/08/04 08:25:07;;;;;;;6.13;1.80;;;33.20;54.80;;;;;;4985197;28;20113;-80
2022/08/04 08:27:33;;;;;;;2.83;1.58;;;33.40;54.30;;;;;;4983457;28;21999;-80
2022/08/04 08:29:58;;;;;;;5.90;1.90;;;33.60;55.30;;;;;;4995174;28;20037;-80
2022/08/04 08:32:24;;;;;;;5.28;1.92;;;33.60;53.70;;;;;;4978034;28;20088;-80
2022/08/04 08:34:50;;;;;;;5.07;2.30;;;33.50;53.30;;;;;;4999282;28;20038;-80
2022/08/04 08:37:29;;;;;;;2.28;2.08;;;33.90;55.10;;;;;;4968175;28;20093;-80
2022/08/04 08:40:16;;;;;;;1.73;1.55;;;34.10;54.70;;;;;;4978960;28;20088;-80
2022/08/04 08:43:06;;;;;;;3.17;1.98;;;34.10;55.00;;;;;;4990950;28;20115;-80
2022/08/04 08:46:27;;;;;;;6.13;2.28;;;34.10;52.40;;;;;;5005845;28;20626;-80
2022/08/04 08:49:01;;;;;;;2.00;1.90;;;34.40;53.50;;;;;;4951590;28;20576;-78
2022/08/04 08:51:30;;;;;;;3.95;1.50;;;34.60;52.50;;;;;;4951319;28;20042;-79
2022/08/04 08:54:10;;;;;;;4.70;1.98;;;34.60;54.50;;;;;;4979851;28;20117;-79
2022/08/04 08:56:52;;;;;;;2.88;1.50;;;34.70;54.50;;;;;;4983896;28;20041;-79
2022/08/04 08:59:29;;;;;;;3.53;1.60;;;35.00;54.70;;;;;;4992745;28;20106;-79
2022/08/04 09:02:05;;;;;;;2.45;2.25;;;35.00;54.40;;;;;;5003227;28;20021;-78
2022/08/04 09:04:54;;;;;;;2.65;1.70;;;35.40;53.20;;;;;;4970267;28;20029;-80
2022/08/04 09:07:47;;;;;;;1.90;1.75;;;35.80;51.70;;;;;;4998887;28;20226;-78
2022/08/04 09:10:36;;;;;;;2.88;1.85;;;35.70;52.30;;;;;;5010386;28;20123;-78
2022/08/04 09:13:15;;;;;;;2.58;1.80;;;36.00;53.50;;;;;;4995818;28;20034;-78
2022/08/04 09:16:03;;;;;;;1.65;1.55;;;36.10;52.00;;;;;;4994646;28;20837;-78
2022/08/04 09:19:01;;;;;;;3.10;2.08;;;36.10;52.80;;;;;;4986609;28;20060;-78
2022/08/04 09:21:50;;;;;;;5.43;1.55;;;36.10;53.00;;;;;;5008828;28;20092;-78
2022/08/04 09:24:40;;;;;;;3.28;1.85;;;36.30;49.90;;;;;;4974635;28;20034;-78
2022/08/04 09:27:17;;;;;;;2.22;1.95;;;36.50;52.60;;;;;;4985940;28;20535;-77
2022/08/04 09:30:03;;;;;;;2.70;1.58;;;36.80;52.40;;;;;;4986726;28;20142;-77
2022/08/04 09:32:36;;;;;;;4.45;1.67;;;37.20;50.80;;;;;;4988471;28;20546;-77
2022/08/04 09:35:05;;;;;;;3.55;2.28;;;37.30;50.00;;;;;;4999241;28;20188;-77
2022/08/04 09:37:37;;;;;;;3.58;2.25;;;37.30;48.90;;;;;;5009282;28;20038;-78
2022/08/04 09:40:13;;;;;;;4.50;1.88;;;37.40;49.10;;;;;;4981329;28;20034;-78
2022/08/04 09:43:08;;;;;;;1.80;1.60;;;37.60;48.60;;;;;;5003083;28;20112;-77
2022/08/04 09:46:06;;;;;;;3.30;1.85;;;37.90;47.30;;;;;;5008274;28;20066;-78
2022/08/04 09:48:45;;;;;;;2.15;1.40;;;37.80;45.90;;;;;;4980835;28;20042;-78
2022/08/04 09:51:46;;;;;;;2.67;1.42;;;38.00;47.50;;;;;;5008097;28;20174;-78
2022/08/04 09:54:36;;;;;;;2.70;1.45;;;38.50;48.30;;;;;;4989091;28;20030;-77
2022/08/04 09:57:25;;;;;;;2.15;1.67;;;38.90;48.30;;;;;;4987643;28;20037;-78
2022/08/04 10:00:04;;;;;;;3.40;1.40;;;39.00;47.30;;;;;;5008228;28;20564;-78
2022/08/04 10:02:33;;;;;;;3.30;1.45;;;39.10;47.50;;;;;;5011584;28;20112;-79
2022/08/04 10:04:59;;;;;;;1.35;1.25;;;39.10;48.20;;;;;;5007450;28;20097;-78
2022/08/04 10:07:55;;;;;;;3.90;1.60;;;39.10;47.10;;;;;;4988041;28;20076;-78
2022/08/04 10:11:00;;;;;;;6.65;2.53;;;39.00;46.90;;;;;;5002489;28;20025;-78
2022/08/04 10:13:33;;;;;;;4.32;1.85;;;39.10;46.20;;;;;;4980326;28;20033;-78
2022/08/04 10:16:43;;;;;;;2.97;1.90;;;39.10;46.20;;;;;;5010623;28;20034;-79
2022/08/04 10:19:14;;;;;;;2.90;1.88;;;39.10;46.10;;;;;;5006356;28;20065;-79
2022/08/04 10:22:05;;;;;;;1.70;1.60;;;39.30;46.50;;;;;;4992847;28;20030;-79
2022/08/04 10:25:07;;;;;;;4.93;1.67;;;39.40;46.80;;;;;;5007746;28;20559;-79
2022/08/04 10:27:49;;;;;;;2.63;2.05;;;39.40;46.40;;;;;;5025244;28;20545;-79
2022/08/04 10:30:17;;;;;;;1.92;1.73;;;39.60;45.60;;;;;;4991234;28;20034;-79
2022/08/04 10:33:12;;;;;;;5.13;1.75;;;39.70;45.20;;;;;;4989344;28;20045;-79
2022/08/04 10:35:45;;;;;;;3.97;2.08;;;39.90;45.20;;;;;;4990377;28;20563;-79
2022/08/04 10:38:40;;;;;;;2.70;1.90;;;39.90;45.30;;;;;;5012716;28;20029;-79
2022/08/04 10:41:30;;;;;;;5.45;2.03;;;39.90;44.40;;;;;;4996345;28;20091;-79
2022/08/04 10:44:12;;;;;;;3.30;1.77;;;39.90;43.20;;;;;;5008961;28;20026;-79
2022/08/04 10:46:47;;;;;;;5.32;1.58;;;39.80;43.30;;;;;;5032149;28;20034;-79
2022/08/04 10:49:22;;;;;;;4.85;1.75;;;39.60;44.10;;;;;;4996543;28;20029;-79
2022/08/04 10:51:58;;;;;;;3.40;1.48;;;39.50;44.60;;;;;;5010296;28;20042;-78
2022/08/04 10:54:46;;;;;;;3.33;1.88;;;39.50;44.00;;;;;;5015375;28;20412;-79
2022/08/04 10:57:17;;;;;;;5.55;2.53;;;39.60;44.80;;;;;;4999977;28;20520;-79
2022/08/04 10:59:58;;;;;;;3.22;2.60;;;39.50;44.90;;;;;;4996058;28;20036;-79
2022/08/04 11:02:28;;;;;;;14.65;3.70;;;39.60;45.30;;;;;;5013983;28;20358;-79
2022/08/04 11:05:11;;;;;;;8.27;2.58;;;39.90;44.70;;;;;;5013870;28;20033;-78
2022/08/04 11:07:47;;;;;;;8.32;1.98;;;39.90;44.70;;;;;;5001879;28;20040;-81
2022/08/04 11:10:12;;;;;;;5.88;1.95;;;39.90;44.50;;;;;;4978672;28;20037;-78
2022/08/04 11:12:38;;;;;;;9.48;2.13;;;40.00;44.30;;;;;;4980356;28;20044;-79
2022/08/04 11:15:06;;;;;;;2.80;2.10;;;40.10;44.10;;;;;;5002913;28;20952;-79
2022/08/04 11:17:40;;;;;;;7.03;2.20;;;40.10;44.10;;;;;;5016363;28;20037;-79
2022/08/04 11:20:18;;;;;;;8.97;2.27;;;40.20;43.90;;;;;;4295923;28;10000992;-79
2022/08/04 11:22:54;;;;;;;8.10;2.75;;;40.30;44.20;;;;;;5013702;28;20083;-79
2022/08/04 11:25:24;;;;;;;6.60;2.80;;;40.50;44.40;;;;;;4975683;28;20229;-79
2022/08/04 11:27:58;;;;;;;10.57;2.60;;;40.60;44.00;;;;;;4989370;28;20061;-78
2022/08/04 11:30:25;;;;;;;11.02;3.05;;;40.80;43.10;;;;;;4990760;28;20045;-79
2022/08/04 11:32:52;;;;;;;9.02;2.60;;;40.90;43.50;;;;;;4983468;28;20063;-78
2022/08/04 11:35:30;;;;;;;10.23;2.40;;;41.00;43.50;;;;;;5016807;28;20038;-79
2022/08/04 11:38:01;;;;;;;6.40;2.60;;;40.90;43.40;;;;;;4963301;28;20061;-78
2022/08/04 11:40:40;;;;;;;4.80;2.17;;;41.00;43.20;;;;;;4999731;28;20030;-79
2022/08/04 11:43:46;;;;;;;9.30;2.65;;;41.10;43.00;;;;;;5000443;28;20030;-78
2022/08/04 11:46:17;;;;;;;7.78;2.53;;;41.20;42.70;;;;;;4958269;28;20027;-78
2022/08/04 11:49:03;;;;;;;7.85;2.92;;;41.20;42.90;;;;;;5005132;28;20505;-78
2022/08/04 11:51:29;;;;;;;4.32;2.28;;;41.10;42.50;;;;;;5019994;28;20045;-77
2022/08/04 11:53:55;;;;;;;6.55;2.08;;;40.80;42.30;;;;;;5010185;28;20037;-78
2022/08/04 11:56:20;;;;;;;9.20;2.05;;;40.70;42.10;;;;;;4977121;28;20049;-79
2022/08/04 11:58:46;;;;;;;5.43;1.70;;;40.50;42.40;;;;;;4998139;28;20120;-79
2022/08/04 12:01:38;;;;;;;10.18;2.10;;;40.50;42.40;;;;;;4979895;28;20033;-79
2022/08/04 12:04:12;;;;;;;5.22;1.67;;;40.50;41.10;;;;;;5016288;28;20088;-78
2022/08/04 12:06:54;;;;;;;5.77;1.80;;;40.20;42.10;;;;;;5006991;28;20841;-79
2022/08/04 12:09:51;;;;;;;6.45;1.55;;;40.20;42.70;;;;;;4998044;28;20787;-78
2022/08/04 12:12:24;;;;;;;3.42;1.50;;;39.90;43.10;;;;;;5000254;28;20617;-79
2022/08/04 12:15:12;;;;;;;8.68;2.17;;;39.80;42.60;;;;;;4992998;28;20493;-78
2022/08/04 12:17:58;;;;;;;7.18;1.77;;;39.50;42.40;;;;;;5013482;28;20050;-79
2022/08/04 12:20:24;;;;;;;5.50;1.83;;;39.30;42.40;;;;;;4933582;28;20038;-79
2022/08/04 12:22:50;;;;;;;4.32;2.10;;;39.00;43.00;;;;;;4983519;28;20080;-79
2022/08/04 12:25:31;;;;;;;2.83;1.45;;;39.00;43.20;;;;;;4984963;28;20041;-78
2022/08/04 12:28:03;;;;;;;2.80;1.45;;;39.00;43.30;;;;;;4954358;28;20042;-79
2022/08/04 12:30:33;;;;;;;4.38;1.60;;;38.90;43.50;;;;;;4979388;28;20564;-79
2022/08/04 12:33:00;;;;;;;8.50;2.15;;;38.80;43.50;;;;;;5007531;28;20049;-80
2022/08/04 12:35:55;;;;;;;2.85;1.90;;;38.70;43.70;;;;;;5007974;28;20084;-79
2022/08/04 12:38:20;;;;;;;9.63;2.20;;;38.70;43.50;;;;;;5007292;28;20549;-79
2022/08/04 12:40:51;;;;;;;5.10;1.98;;;38.50;44.00;;;;;;4986958;28;20266;-80
2022/08/04 12:43:40;;;;;;;5.93;1.75;;;38.50;44.10;;;;;;4984463;28;20030;-79
2022/08/04 12:46:12;;;;;;;5.03;1.98;;;38.30;44.50;;;;;;5011515;28;20123;-79
2022/08/04 12:48:43;;;;;;;5.75;1.60;;;38.50;44.10;;;;;;4983720;28;20038;-80
2022/08/04 12:51:08;;;;;;;2.72;1.60;;;38.30;44.20;;;;;;5015126;28;20371;-79
2022/08/04 12:53:39;;;;;;;4.68;2.15;;;38.40;44.50;;;;;;4961609;28;20413;-80
2022/08/04 12:56:06;;;;;;;6.55;2.20;;;38.50;44.20;;;;;;4986260;28;20058;-79
2022/08/04 12:58:36;;;;;;;9.63;2.20;;;38.60;44.00;;;;;;4957457;28;20128;-79
2022/08/04 13:01:22;;;;;;;4.05;2.00;;;38.60;43.90;;;;;;4946977;28;20100;-79
2022/08/04 13:03:57;;;;;;;13.73;3.15;;;38.70;44.20;;;;;;4984877;28;20034;-79
2022/08/04 13:06:49;;;;;;;10.50;2.72;;;38.90;44.20;;;;;;4976370;28;20049;-79
2022/08/04 13:09:16;;;;;;;11.43;2.72;;;38.90;44.60;;;;;;5004886;28;20525;-80
2022/08/04 13:11:47;;;;;;;8.15;2.05;;;39.20;45.00;;;;;;4965409;28;20042;-80
2022/08/04 13:14:12;;;;;;;11.40;2.90;;;39.30;45.30;;;;;;4995899;28;20054;-80
2022/08/04 13:16:38;;;;;;;8.35;2.40;;;39.40;44.60;;;;;;4962909;28;20033;-80
2022/08/04 13:19:06;;;;;;;5.93;2.25;;;39.60;44.80;;;;;;4996793;28;20042;-80
2022/08/04 13:21:31;;;;;;;5.78;2.33;;;39.40;45.40;;;;;;4990232;28;20088;-79
2022/08/04 13:24:01;;;;;;;7.00;2.22;;;39.70;44.70;;;;;;4998086;28;20034;-80
2022/08/04 13:26:27;;;;;;;8.40;3.03;;;39.90;44.80;;;;;;5002048;28;20049;-80
2022/08/04 13:28:53;;;;;;;3.05;2.03;;;40.00;45.00;;;;;;4989756;28;20026;-79